sensor_id;sensor_type;location;lat;lon;timestamp;temperature;humidity
70830;SHT30;58451;51.550;7.208;2023-04-24T00:00:14;11.75;66.67
70830;SHT30;58451;51.550;7.208;2023-04-24T00:01:48;11.74;66.75
70830;SHT30;58451;51.550;7.208;2023-04-24T00:03:22;11.72;66.68
70830;SHT30;58451;51.550;7.208;2023-04-24T00:04:55;11.74;66.68
70830;SHT30;58451;51.550;7.208;2023-04-24T00:06:27;11.75;66.55
70830;SHT30;58451;51.550;7.208;2023-04-24T00:08:04;11.74;66.60
70830;SHT30;58451;51.550;7.208;2023-04-24T00:09:36;11.74;66.55
70830;SHT30;58451;51.550;7.208;2023-04-24T00:11:08;11.75;66.47
70830;SHT30;58451;51.550;7.208;2023-04-24T00:12:40;11.75;66.47
70830;SHT30;58451;51.550;7.208;2023-04-24T00:14:12;11.77;66.42
70830;SHT30;58451;51.550;7.208;2023-04-24T00:15:44;11.78;66.42
70830;SHT30;58451;51.550;7.208;2023-04-24T00:17:16;11.80;66.53
70830;SHT30;58451;51.550;7.208;2023-04-24T00:18:51;11.81;66.52
70830;SHT30;58451;51.550;7.208;2023-04-24T00:20:24;11.82;66.48
70830;SHT30;58451;51.550;7.208;2023-04-24T00:21:56;11.83;66.53
70830;SHT30;58451;51.550;7.208;2023-04-24T00:23:27;11.84;66.67
70830;SHT30;58451;51.550;7.208;2023-04-24T00:24:59;11.85;66.62
70830;SHT30;58451;51.550;7.208;2023-04-24T00:26:31;11.85;66.67
70830;SHT30;58451;51.550;7.208;2023-04-24T00:28:02;11.85;66.72
70830;SHT30;58451;51.550;7.208;2023-04-24T00:29:34;11.85;66.68
70830;SHT30;58451;51.550;7.208;2023-04-24T00:31:06;11.85;66.73
70830;SHT30;58451;51.550;7.208;2023-04-24T00:32:38;11.85;66.75
70830;SHT30;58451;51.550;7.208;2023-04-24T00:34:10;11.85;66.77
70830;SHT30;58451;51.550;7.208;2023-04-24T00:35:42;11.85;66.78
70830;SHT30;58451;51.550;7.208;2023-04-24T00:37:15;11.84;66.80
70830;SHT30;58451;51.550;7.208;2023-04-24T00:38:48;11.83;66.72
70830;SHT30;58451;51.550;7.208;2023-04-24T00:40:20;11.81;66.70
70830;SHT30;58451;51.550;7.208;2023-04-24T00:41:52;11.80;66.73
70830;SHT30;58451;51.550;7.208;2023-04-24T00:43:24;11.78;66.63
70830;SHT30;58451;51.550;7.208;2023-04-24T00:44:57;11.75;66.67
70830;SHT30;58451;51.550;7.208;2023-04-24T00:46:30;11.69;66.60
70830;SHT30;58451;51.550;7.208;2023-04-24T00:48:03;11.67;66.72
70830;SHT30;58451;51.550;7.208;2023-04-24T00:49:36;11.64;66.73
70830;SHT30;58451;51.550;7.208;2023-04-24T00:51:07;11.63;66.63
70830;SHT30;58451;51.550;7.208;2023-04-24T00:52:39;11.64;66.63
70830;SHT30;58451;51.550;7.208;2023-04-24T00:54:12;11.60;66.73
70830;SHT30;58451;51.550;7.208;2023-04-24T00:55:44;11.60;66.63
70830;SHT30;58451;51.550;7.208;2023-04-24T00:57:17;11.58;66.65
70830;SHT30;58451;51.550;7.208;2023-04-24T00:58:51;11.57;66.72
70830;SHT30;58451;51.550;7.208;2023-04-24T01:00:23;11.54;66.62
70830;SHT30;58451;51.550;7.208;2023-04-24T01:04:15;11.44;66.93
70830;SHT30;58451;51.550;7.208;2023-04-24T01:05:49;11.39;67.00
70830;SHT30;58451;51.550;7.208;2023-04-24T01:07:22;11.35;67.08
70830;SHT30;58451;51.550;7.208;2023-04-24T01:08:55;11.31;67.07
70830;SHT30;58451;51.550;7.208;2023-04-24T01:10:27;11.28;67.18
70830;SHT30;58451;51.550;7.208;2023-04-24T01:12:01;11.23;67.15
70830;SHT30;58451;51.550;7.208;2023-04-24T01:13:33;11.19;67.07
70830;SHT30;58451;51.550;7.208;2023-04-24T01:15:07;11.15;67.17
70830;SHT30;58451;51.550;7.208;2023-04-24T01:16:40;11.12;67.27
70830;SHT30;58451;51.550;7.208;2023-04-24T01:18:13;11.10;67.25
70830;SHT30;58451;51.550;7.208;2023-04-24T01:19:46;11.07;67.40
70830;SHT30;58451;51.550;7.208;2023-04-24T01:21:17;11.04;67.48
70830;SHT30;58451;51.550;7.208;2023-04-24T01:22:54;11.01;67.70
70830;SHT30;58451;51.550;7.208;2023-04-24T01:24:28;11.00;67.58
70830;SHT30;58451;51.550;7.208;2023-04-24T01:26:00;10.99;67.65
70830;SHT30;58451;51.550;7.208;2023-04-24T01:27:32;10.99;67.77
70830;SHT30;58451;51.550;7.208;2023-04-24T01:29:04;10.98;67.75
70830;SHT30;58451;51.550;7.208;2023-04-24T01:30:36;10.97;67.88
70830;SHT30;58451;51.550;7.208;2023-04-24T01:32:08;10.95;67.92
70830;SHT30;58451;51.550;7.208;2023-04-24T01:33:41;10.95;67.95
70830;SHT30;58451;51.550;7.208;2023-04-24T01:35:13;10.91;67.80
70830;SHT30;58451;51.550;7.208;2023-04-24T01:36:45;10.90;67.75
70830;SHT30;58451;51.550;7.208;2023-04-24T01:38:18;10.85;67.83
70830;SHT30;58451;51.550;7.208;2023-04-24T01:39:49;10.82;68.05
70830;SHT30;58451;51.550;7.208;2023-04-24T01:41:22;10.77;68.63
70830;SHT30;58451;51.550;7.208;2023-04-24T01:42:55;10.76;68.72
70830;SHT30;58451;51.550;7.208;2023-04-24T01:44:28;10.72;69.20
70830;SHT30;58451;51.550;7.208;2023-04-24T01:46:01;10.71;69.05
70830;SHT30;58451;51.550;7.208;2023-04-24T01:47:33;10.69;68.95
70830;SHT30;58451;51.550;7.208;2023-04-24T01:49:05;10.67;69.22
70830;SHT30;58451;51.550;7.208;2023-04-24T01:50:37;10.63;69.85
70830;SHT30;58451;51.550;7.208;2023-04-24T01:52:10;10.63;69.57
70830;SHT30;58451;51.550;7.208;2023-04-24T01:53:41;10.62;69.40
70830;SHT30;58451;51.550;7.208;2023-04-24T01:55:13;10.60;69.73
70830;SHT30;58451;51.550;7.208;2023-04-24T01:56:45;10.59;69.75
70830;SHT30;58451;51.550;7.208;2023-04-24T01:58:18;10.57;69.38
70830;SHT30;58451;51.550;7.208;2023-04-24T01:59:50;10.56;69.57
70830;SHT30;58451;51.550;7.208;2023-04-24T02:01:23;10.52;69.55
70830;SHT30;58451;51.550;7.208;2023-04-24T02:02:56;10.49;69.60
70830;SHT30;58451;51.550;7.208;2023-04-24T02:04:29;10.45;69.72
70830;SHT30;58451;51.550;7.208;2023-04-24T02:06:01;10.43;69.83
70830;SHT30;58451;51.550;7.208;2023-04-24T02:07:35;10.39;69.87
70830;SHT30;58451;51.550;7.208;2023-04-24T02:09:07;10.35;69.92
70830;SHT30;58451;51.550;7.208;2023-04-24T02:10:39;10.30;70.35
70830;SHT30;58451;51.550;7.208;2023-04-24T02:12:11;10.27;70.20
70830;SHT30;58451;51.550;7.208;2023-04-24T02:13:43;10.24;70.13
70830;SHT30;58451;51.550;7.208;2023-04-24T02:15:15;10.21;70.73
70830;SHT30;58451;51.550;7.208;2023-04-24T02:16:46;10.17;70.73
70830;SHT30;58451;51.550;7.208;2023-04-24T02:18:18;10.15;71.02
70830;SHT30;58451;51.550;7.208;2023-04-24T02:19:51;10.13;70.72
70830;SHT30;58451;51.550;7.208;2023-04-24T02:21:22;10.10;70.63
70830;SHT30;58451;51.550;7.208;2023-04-24T02:22:54;10.08;70.92
70830;SHT30;58451;51.550;7.208;2023-04-24T02:24:26;10.05;71.12
70830;SHT30;58451;51.550;7.208;2023-04-24T02:26:12;10.04;71.17
70830;SHT30;58451;51.550;7.208;2023-04-24T02:27:44;10.03;71.07
70830;SHT30;58451;51.550;7.208;2023-04-24T02:29:16;10.02;71.27
70830;SHT30;58451;51.550;7.208;2023-04-24T02:30:47;10.03;71.22
70830;SHT30;58451;51.550;7.208;2023-04-24T02:32:19;10.05;70.87
70830;SHT30;58451;51.550;7.208;2023-04-24T02:33:51;10.05;70.82
70830;SHT30;58451;51.550;7.208;2023-04-24T02:35:23;10.06;70.88
70830;SHT30;58451;51.550;7.208;2023-04-24T02:36:55;10.06;70.77
70830;SHT30;58451;51.550;7.208;2023-04-24T02:38:27;10.08;70.78
70830;SHT30;58451;51.550;7.208;2023-04-24T02:39:59;10.07;70.70
70830;SHT30;58451;51.550;7.208;2023-04-24T02:41:31;10.07;70.65
70830;SHT30;58451;51.550;7.208;2023-04-24T02:43:04;10.08;70.62
70830;SHT30;58451;51.550;7.208;2023-04-24T02:44:35;10.06;70.88
70830;SHT30;58451;51.550;7.208;2023-04-24T02:46:07;10.06;70.80
70830;SHT30;58451;51.550;7.208;2023-04-24T02:47:39;10.05;71.18
70830;SHT30;58451;51.550;7.208;2023-04-24T02:49:11;10.03;71.02
70830;SHT30;58451;51.550;7.208;2023-04-24T02:50:43;10.02;70.98
70830;SHT30;58451;51.550;7.208;2023-04-24T02:52:15;9.98;71.33
70830;SHT30;58451;51.550;7.208;2023-04-24T02:53:48;9.95;71.48
70830;SHT30;58451;51.550;7.208;2023-04-24T02:55:19;9.94;71.43
70830;SHT30;58451;51.550;7.208;2023-04-24T02:56:51;9.93;71.70
70830;SHT30;58451;51.550;7.208;2023-04-24T02:58:23;9.92;71.38
70830;SHT30;58451;51.550;7.208;2023-04-24T02:59:56;9.92;71.43
70830;SHT30;58451;51.550;7.208;2023-04-24T03:01:28;9.91;71.48
70830;SHT30;58451;51.550;7.208;2023-04-24T03:03:00;9.90;71.57
70830;SHT30;58451;51.550;7.208;2023-04-24T03:04:32;9.90;72.00
70830;SHT30;58451;51.550;7.208;2023-04-24T03:06:05;9.90;72.08
70830;SHT30;58451;51.550;7.208;2023-04-24T03:07:39;9.90;72.12
70830;SHT30;58451;51.550;7.208;2023-04-24T03:09:11;9.91;71.77
70830;SHT30;58451;51.550;7.208;2023-04-24T03:10:43;9.93;72.23
70830;SHT30;58451;51.550;7.208;2023-04-24T03:12:18;9.94;72.30
70830;SHT30;58451;51.550;7.208;2023-04-24T03:13:50;9.94;72.17
70830;SHT30;58451;51.550;7.208;2023-04-24T03:15:23;9.94;72.33
70830;SHT30;58451;51.550;7.208;2023-04-24T03:16:55;9.95;72.62
70830;SHT30;58451;51.550;7.208;2023-04-24T03:18:27;9.97;72.25
70830;SHT30;58451;51.550;7.208;2023-04-24T03:19:59;9.98;72.13
70830;SHT30;58451;51.550;7.208;2023-04-24T03:21:30;10.01;72.08
70830;SHT30;58451;51.550;7.208;2023-04-24T03:23:03;10.02;72.15
70830;SHT30;58451;51.550;7.208;2023-04-24T03:24:35;10.03;72.22
70830;SHT30;58451;51.550;7.208;2023-04-24T03:26:08;10.05;72.00
70830;SHT30;58451;51.550;7.208;2023-04-24T03:27:41;10.06;71.98
70830;SHT30;58451;51.550;7.208;2023-04-24T03:29:32;10.06;72.25
70830;SHT30;58451;51.550;7.208;2023-04-24T03:31:04;10.09;71.95
70830;SHT30;58451;51.550;7.208;2023-04-24T03:32:38;10.09;71.78
70830;SHT30;58451;51.550;7.208;2023-04-24T03:34:11;10.11;72.05
70830;SHT30;58451;51.550;7.208;2023-04-24T03:35:43;10.14;71.95
70830;SHT30;58451;51.550;7.208;2023-04-24T03:37:16;10.13;71.85
70830;SHT30;58451;51.550;7.208;2023-04-24T03:38:53;10.15;71.87
70830;SHT30;58451;51.550;7.208;2023-04-24T03:40:31;10.16;71.82
70830;SHT30;58451;51.550;7.208;2023-04-24T03:42:05;10.17;71.90
70830;SHT30;58451;51.550;7.208;2023-04-24T03:43:46;10.18;71.85
70830;SHT30;58451;51.550;7.208;2023-04-24T03:45:19;10.17;71.82
70830;SHT30;58451;51.550;7.208;2023-04-24T03:46:52;10.19;71.82
70830;SHT30;58451;51.550;7.208;2023-04-24T03:48:25;10.20;71.77
70830;SHT30;58451;51.550;7.208;2023-04-24T03:49:58;10.22;71.62
70830;SHT30;58451;51.550;7.208;2023-04-24T03:51:30;10.23;71.77
70830;SHT30;58451;51.550;7.208;2023-04-24T03:53:11;10.24;71.58
70830;SHT30;58451;51.550;7.208;2023-04-24T03:54:44;10.25;71.60
70830;SHT30;58451;51.550;7.208;2023-04-24T03:56:16;10.26;71.60
70830;SHT30;58451;51.550;7.208;2023-04-24T03:57:48;10.27;71.57
70830;SHT30;58451;51.550;7.208;2023-04-24T03:59:24;10.27;71.53
70830;SHT30;58451;51.550;7.208;2023-04-24T04:01:08;10.27;71.58
70830;SHT30;58451;51.550;7.208;2023-04-24T04:02:48;10.26;71.77
70830;SHT30;58451;51.550;7.208;2023-04-24T04:04:21;10.26;71.70
70830;SHT30;58451;51.550;7.208;2023-04-24T04:05:54;10.27;71.62
70830;SHT30;58451;51.550;7.208;2023-04-24T04:07:26;10.29;71.47
70830;SHT30;58451;51.550;7.208;2023-04-24T04:08:58;10.30;71.40
70830;SHT30;58451;51.550;7.208;2023-04-24T04:10:30;10.30;71.40
70830;SHT30;58451;51.550;7.208;2023-04-24T04:12:02;10.31;71.35
70830;SHT30;58451;51.550;7.208;2023-04-24T04:13:36;10.31;71.32
70830;SHT30;58451;51.550;7.208;2023-04-24T04:15:08;10.33;71.32
70830;SHT30;58451;51.550;7.208;2023-04-24T04:16:40;10.32;71.37
70830;SHT30;58451;51.550;7.208;2023-04-24T04:18:14;10.31;71.33
70830;SHT30;58451;51.550;7.208;2023-04-24T04:19:46;10.30;71.33
70830;SHT30;58451;51.550;7.208;2023-04-24T04:21:18;10.32;71.25
70830;SHT30;58451;51.550;7.208;2023-04-24T04:22:50;10.33;71.32
70830;SHT30;58451;51.550;7.208;2023-04-24T04:24:27;10.34;71.23
70830;SHT30;58451;51.550;7.208;2023-04-24T04:26:02;10.36;71.15
70830;SHT30;58451;51.550;7.208;2023-04-24T04:27:50;10.36;71.10
70830;SHT30;58451;51.550;7.208;2023-04-24T04:29:23;10.36;71.20
70830;SHT30;58451;51.550;7.208;2023-04-24T04:30:59;10.36;71.10
70830;SHT30;58451;51.550;7.208;2023-04-24T04:32:35;10.36;71.03
70830;SHT30;58451;51.550;7.208;2023-04-24T04:34:10;10.36;71.07
70830;SHT30;58451;51.550;7.208;2023-04-24T04:35:49;10.36;71.12
70830;SHT30;58451;51.550;7.208;2023-04-24T04:37:27;10.34;71.07
70830;SHT30;58451;51.550;7.208;2023-04-24T04:39:40;10.34;71.08
70830;SHT30;58451;51.550;7.208;2023-04-24T04:41:21;10.33;71.07
70830;SHT30;58451;51.550;7.208;2023-04-24T04:42:54;10.35;71.05
70830;SHT30;58451;51.550;7.208;2023-04-24T04:44:27;10.37;70.98
70830;SHT30;58451;51.550;7.208;2023-04-24T04:46:01;10.39;70.92
70830;SHT30;58451;51.550;7.208;2023-04-24T04:47:57;10.38;70.88
70830;SHT30;58451;51.550;7.208;2023-04-24T04:49:33;10.40;70.80
70830;SHT30;58451;51.550;7.208;2023-04-24T04:51:09;10.41;70.88
70830;SHT30;58451;51.550;7.208;2023-04-24T04:52:42;10.40;70.95
70830;SHT30;58451;51.550;7.208;2023-04-24T04:54:26;10.43;70.78
70830;SHT30;58451;51.550;7.208;2023-04-24T04:55:58;10.43;70.63
70830;SHT30;58451;51.550;7.208;2023-04-24T04:57:37;10.44;70.67
70830;SHT30;58451;51.550;7.208;2023-04-24T04:59:09;10.43;70.62
70830;SHT30;58451;51.550;7.208;2023-04-24T05:00:42;10.44;70.60
70830;SHT30;58451;51.550;7.208;2023-04-24T05:02:35;10.45;70.57
70830;SHT30;58451;51.550;7.208;2023-04-24T05:04:07;10.47;70.50
70830;SHT30;58451;51.550;7.208;2023-04-24T05:05:41;10.47;70.43
70830;SHT30;58451;51.550;7.208;2023-04-24T05:07:14;10.48;70.40
70830;SHT30;58451;51.550;7.208;2023-04-24T05:08:49;10.49;70.42
70830;SHT30;58451;51.550;7.208;2023-04-24T05:10:37;10.52;70.28
70830;SHT30;58451;51.550;7.208;2023-04-24T05:12:08;10.55;70.22
70830;SHT30;58451;51.550;7.208;2023-04-24T05:13:45;10.57;70.20
70830;SHT30;58451;51.550;7.208;2023-04-24T05:15:22;10.61;70.05
70830;SHT30;58451;51.550;7.208;2023-04-24T05:16:54;10.64;70.00
70830;SHT30;58451;51.550;7.208;2023-04-24T05:18:26;10.69;69.95
70830;SHT30;58451;51.550;7.208;2023-04-24T05:19:58;10.72;69.72
70830;SHT30;58451;51.550;7.208;2023-04-24T05:21:30;10.77;69.53
70830;SHT30;58451;51.550;7.208;2023-04-24T05:23:02;10.79;69.35
70830;SHT30;58451;51.550;7.208;2023-04-24T05:24:34;10.84;69.32
70830;SHT30;58451;51.550;7.208;2023-04-24T05:26:16;10.87;69.28
70830;SHT30;58451;51.550;7.208;2023-04-24T05:27:49;10.88;69.15
70830;SHT30;58451;51.550;7.208;2023-04-24T05:29:21;10.89;69.15
70830;SHT30;58451;51.550;7.208;2023-04-24T05:30:53;10.89;69.17
70830;SHT30;58451;51.550;7.208;2023-04-24T05:32:30;10.85;68.93
70830;SHT30;58451;51.550;7.208;2023-04-24T05:34:02;10.82;68.83
70830;SHT30;58451;51.550;7.208;2023-04-24T05:35:34;10.77;68.80
70830;SHT30;58451;51.550;7.208;2023-04-24T05:37:06;10.74;68.87
70830;SHT30;58451;51.550;7.208;2023-04-24T05:38:41;10.74;68.98
70830;SHT30;58451;51.550;7.208;2023-04-24T05:40:12;10.76;69.03
70830;SHT30;58451;51.550;7.208;2023-04-24T05:41:45;10.76;68.95
70830;SHT30;58451;51.550;7.208;2023-04-24T05:43:17;10.78;69.00
70830;SHT30;58451;51.550;7.208;2023-04-24T05:44:48;10.78;69.03
70830;SHT30;58451;51.550;7.208;2023-04-24T05:46:24;10.79;69.05
70830;SHT30;58451;51.550;7.208;2023-04-24T05:47:56;10.79;69.10
70830;SHT30;58451;51.550;7.208;2023-04-24T05:49:28;10.77;69.22
70830;SHT30;58451;51.550;7.208;2023-04-24T05:50:59;10.76;69.33
70830;SHT30;58451;51.550;7.208;2023-04-24T05:52:31;10.70;69.75
70830;SHT30;58451;51.550;7.208;2023-04-24T05:54:04;10.65;70.17
70830;SHT30;58451;51.550;7.208;2023-04-24T05:55:36;10.64;70.37
70830;SHT30;58451;51.550;7.208;2023-04-24T05:57:08;10.61;70.50
70830;SHT30;58451;51.550;7.208;2023-04-24T05:59:00;10.58;70.63
70830;SHT30;58451;51.550;7.208;2023-04-24T06:00:32;10.57;70.77
70830;SHT30;58451;51.550;7.208;2023-04-24T06:02:07;10.53;71.20
70830;SHT30;58451;51.550;7.208;2023-04-24T06:03:40;10.50;71.33
70830;SHT30;58451;51.550;7.208;2023-04-24T06:05:13;10.46;71.37
70830;SHT30;58451;51.550;7.208;2023-04-24T06:06:46;10.42;72.25
70830;SHT30;58451;51.550;7.208;2023-04-24T06:08:22;10.39;72.17
70830;SHT30;58451;51.550;7.208;2023-04-24T06:09:53;10.34;72.92
70830;SHT30;58451;51.550;7.208;2023-04-24T06:11:26;10.31;73.12
70830;SHT30;58451;51.550;7.208;2023-04-24T06:12:58;10.32;72.75
70830;SHT30;58451;51.550;7.208;2023-04-24T06:14:32;10.31;72.63
70830;SHT30;58451;51.550;7.208;2023-04-24T06:16:19;10.27;73.27
70830;SHT30;58451;51.550;7.208;2023-04-24T06:17:57;10.21;73.55
70830;SHT30;58451;51.550;7.208;2023-04-24T06:19:29;10.20;73.67
70830;SHT30;58451;51.550;7.208;2023-04-24T06:21:01;10.21;73.27
70830;SHT30;58451;51.550;7.208;2023-04-24T06:22:33;10.18;73.12
70830;SHT30;58451;51.550;7.208;2023-04-24T06:24:07;10.14;73.37
70830;SHT30;58451;51.550;7.208;2023-04-24T06:25:39;10.15;73.17
70830;SHT30;58451;51.550;7.208;2023-04-24T06:27:11;10.18;73.05
70830;SHT30;58451;51.550;7.208;2023-04-24T06:28:44;10.20;72.90
70830;SHT30;58451;51.550;7.208;2023-04-24T06:30:16;10.21;72.87
70830;SHT30;58451;51.550;7.208;2023-04-24T06:31:48;10.20;73.13
70830;SHT30;58451;51.550;7.208;2023-04-24T06:33:20;10.19;73.00
70830;SHT30;58451;51.550;7.208;2023-04-24T06:34:54;10.23;72.75
70830;SHT30;58451;51.550;7.208;2023-04-24T06:36:28;10.24;72.95
70830;SHT30;58451;51.550;7.208;2023-04-24T06:38:00;10.31;72.75
70830;SHT30;58451;51.550;7.208;2023-04-24T06:39:32;10.35;72.60
70830;SHT30;58451;51.550;7.208;2023-04-24T06:41:03;10.35;72.43
70830;SHT30;58451;51.550;7.208;2023-04-24T06:42:36;10.39;72.35
70830;SHT30;58451;51.550;7.208;2023-04-24T06:44:12;10.42;72.53
70830;SHT30;58451;51.550;7.208;2023-04-24T06:45:45;10.50;72.30
70830;SHT30;58451;51.550;7.208;2023-04-24T06:47:18;10.52;72.30
70830;SHT30;58451;51.550;7.208;2023-04-24T06:48:50;10.58;72.42
70830;SHT30;58451;51.550;7.208;2023-04-24T06:50:22;10.64;72.23
70830;SHT30;58451;51.550;7.208;2023-04-24T06:51:53;10.67;72.28
70830;SHT30;58451;51.550;7.208;2023-04-24T06:53:25;10.71;72.37
70830;SHT30;58451;51.550;7.208;2023-04-24T06:55:02;10.74;72.30
70830;SHT30;58451;51.550;7.208;2023-04-24T06:56:35;10.74;72.23
70830;SHT30;58451;51.550;7.208;2023-04-24T06:58:07;10.77;72.25
70830;SHT30;58451;51.550;7.208;2023-04-24T06:59:39;10.78;72.27
70830;SHT30;58451;51.550;7.208;2023-04-24T07:01:11;10.82;72.28
70830;SHT30;58451;51.550;7.208;2023-04-24T07:02:43;10.81;72.42
70830;SHT30;58451;51.550;7.208;2023-04-24T07:04:15;10.79;72.33
70830;SHT30;58451;51.550;7.208;2023-04-24T07:05:47;10.78;72.42
70830;SHT30;58451;51.550;7.208;2023-04-24T07:07:20;10.79;72.23
70830;SHT30;58451;51.550;7.208;2023-04-24T07:08:55;10.69;72.33
70830;SHT30;58451;51.550;7.208;2023-04-24T07:10:27;10.77;72.32
70830;SHT30;58451;51.550;7.208;2023-04-24T07:12:00;10.90;72.18
70830;SHT30;58451;51.550;7.208;2023-04-24T07:13:32;11.09;71.97
70830;SHT30;58451;51.550;7.208;2023-04-24T07:15:04;11.29;71.65
70830;SHT30;58451;51.550;7.208;2023-04-24T07:16:37;11.39;71.60
70830;SHT30;58451;51.550;7.208;2023-04-24T07:18:09;11.43;71.53
70830;SHT30;58451;51.550;7.208;2023-04-24T07:19:41;11.44;71.43
70830;SHT30;58451;51.550;7.208;2023-04-24T07:21:14;11.39;71.42
70830;SHT30;58451;51.550;7.208;2023-04-24T07:22:45;11.39;71.32
70830;SHT30;58451;51.550;7.208;2023-04-24T07:24:17;11.35;71.33
70830;SHT30;58451;51.550;7.208;2023-04-24T07:25:51;11.38;71.27
70830;SHT30;58451;51.550;7.208;2023-04-24T07:27:23;11.31;71.32
70830;SHT30;58451;51.550;7.208;2023-04-24T07:28:56;11.12;71.00
70830;SHT30;58451;51.550;7.208;2023-04-24T07:30:28;11.01;71.30
70830;SHT30;58451;51.550;7.208;2023-04-24T07:32:00;10.91;71.53
70830;SHT30;58451;51.550;7.208;2023-04-24T07:33:34;10.78;71.92
70830;SHT30;58451;51.550;7.208;2023-04-24T07:35:07;10.75;72.05
70830;SHT30;58451;51.550;7.208;2023-04-24T07:36:41;10.74;71.80
70830;SHT30;58451;51.550;7.208;2023-04-24T07:38:13;10.68;72.22
70830;SHT30;58451;51.550;7.208;2023-04-24T07:39:45;10.76;72.05
70830;SHT30;58451;51.550;7.208;2023-04-24T07:41:17;10.83;72.13
70830;SHT30;58451;51.550;7.208;2023-04-24T07:42:48;10.90;71.90
70830;SHT30;58451;51.550;7.208;2023-04-24T07:44:21;10.83;71.88
70830;SHT30;58451;51.550;7.208;2023-04-24T07:45:52;10.78;71.88
70830;SHT30;58451;51.550;7.208;2023-04-24T07:47:25;10.70;71.73
70830;SHT30;58451;51.550;7.208;2023-04-24T07:48:56;10.61;71.93
70830;SHT30;58451;51.550;7.208;2023-04-24T07:50:44;10.52;72.35
70830;SHT30;58451;51.550;7.208;2023-04-24T07:52:16;10.50;72.20
70830;SHT30;58451;51.550;7.208;2023-04-24T07:53:48;10.39;73.02
70830;SHT30;58451;51.550;7.208;2023-04-24T07:55:20;10.40;72.90
70830;SHT30;58451;51.550;7.208;2023-04-24T07:56:56;10.47;72.78
70830;SHT30;58451;51.550;7.208;2023-04-24T07:58:27;10.57;72.68
70830;SHT30;58451;51.550;7.208;2023-04-24T07:59:59;10.60;72.98
70830;SHT30;58451;51.550;7.208;2023-04-24T08:01:41;10.63;72.93
70830;SHT30;58451;51.550;7.208;2023-04-24T08:03:14;10.82;72.63
70830;SHT30;58451;51.550;7.208;2023-04-24T08:04:46;10.98;71.95
70830;SHT30;58451;51.550;7.208;2023-04-24T08:06:18;11.03;71.48
70830;SHT30;58451;51.550;7.208;2023-04-24T08:07:49;11.15;71.30
70830;SHT30;58451;51.550;7.208;2023-04-24T08:09:21;11.24;70.85
70830;SHT30;58451;51.550;7.208;2023-04-24T08:10:54;11.28;70.53
70830;SHT30;58451;51.550;7.208;2023-04-24T08:12:27;11.41;69.97
70830;SHT30;58451;51.550;7.208;2023-04-24T08:14:02;11.38;69.83
70830;SHT30;58451;51.550;7.208;2023-04-24T08:15:33;11.38;69.55
70830;SHT30;58451;51.550;7.208;2023-04-24T08:17:06;11.25;69.23
70830;SHT30;58451;51.550;7.208;2023-04-24T08:18:38;11.27;69.53
70830;SHT30;58451;51.550;7.208;2023-04-24T08:20:10;11.24;69.63
70830;SHT30;58451;51.550;7.208;2023-04-24T08:21:45;11.16;69.33
70830;SHT30;58451;51.550;7.208;2023-04-24T08:23:17;10.91;69.43
70830;SHT30;58451;51.550;7.208;2023-04-24T08:24:49;10.85;69.45
70830;SHT30;58451;51.550;7.208;2023-04-24T08:26:21;10.74;69.62
70830;SHT30;58451;51.550;7.208;2023-04-24T08:27:53;10.70;69.90
70830;SHT30;58451;51.550;7.208;2023-04-24T08:29:25;10.64;70.40
70830;SHT30;58451;51.550;7.208;2023-04-24T08:30:58;10.58;70.30
70830;SHT30;58451;51.550;7.208;2023-04-24T08:32:29;10.46;70.67
70830;SHT30;58451;51.550;7.208;2023-04-24T08:34:01;10.36;71.25
70830;SHT30;58451;51.550;7.208;2023-04-24T08:35:33;10.35;71.13
70830;SHT30;58451;51.550;7.208;2023-04-24T08:37:05;10.33;71.28
70830;SHT30;58451;51.550;7.208;2023-04-24T08:38:37;10.28;71.58
70830;SHT30;58451;51.550;7.208;2023-04-24T08:40:12;10.27;71.55
70830;SHT30;58451;51.550;7.208;2023-04-24T08:41:46;10.22;71.70
70830;SHT30;58451;51.550;7.208;2023-04-24T08:43:21;10.14;72.08
70830;SHT30;58451;51.550;7.208;2023-04-24T08:44:54;10.11;72.72
70830;SHT30;58451;51.550;7.208;2023-04-24T08:46:26;10.06;72.87
70830;SHT30;58451;51.550;7.208;2023-04-24T08:47:59;10.02;73.30
70830;SHT30;58451;51.550;7.208;2023-04-24T08:49:31;9.99;73.28
70830;SHT30;58451;51.550;7.208;2023-04-24T08:51:05;9.97;73.28
70830;SHT30;58451;51.550;7.208;2023-04-24T08:52:39;9.93;74.02
70830;SHT30;58451;51.550;7.208;2023-04-24T08:54:13;9.94;74.07
70830;SHT30;58451;51.550;7.208;2023-04-24T08:55:46;9.88;74.15
70830;SHT30;58451;51.550;7.208;2023-04-24T08:57:19;9.84;74.40
70830;SHT30;58451;51.550;7.208;2023-04-24T08:58:52;9.77;74.92
70830;SHT30;58451;51.550;7.208;2023-04-24T09:00:26;9.75;75.08
70830;SHT30;58451;51.550;7.208;2023-04-24T09:01:59;9.76;74.75
70830;SHT30;58451;51.550;7.208;2023-04-24T09:03:31;9.75;74.97
70830;SHT30;58451;51.550;7.208;2023-04-24T09:05:05;9.74;76.02
70830;SHT30;58451;51.550;7.208;2023-04-24T09:06:39;9.72;75.68
70830;SHT30;58451;51.550;7.208;2023-04-24T09:08:11;9.65;76.85
70830;SHT30;58451;51.550;7.208;2023-04-24T09:09:45;9.60;76.77
70830;SHT30;58451;51.550;7.208;2023-04-24T09:11:17;9.60;76.42
70830;SHT30;58451;51.550;7.208;2023-04-24T09:12:50;9.60;76.60
70830;SHT30;58451;51.550;7.208;2023-04-24T09:14:23;9.61;76.65
70830;SHT30;58451;51.550;7.208;2023-04-24T09:15:55;9.60;76.78
70830;SHT30;58451;51.550;7.208;2023-04-24T09:17:30;9.57;76.80
70830;SHT30;58451;51.550;7.208;2023-04-24T09:19:02;9.55;76.32
70830;SHT30;58451;51.550;7.208;2023-04-24T09:20:34;9.54;76.62
70830;SHT30;58451;51.550;7.208;2023-04-24T09:22:29;9.49;77.65
70830;SHT30;58451;51.550;7.208;2023-04-24T09:24:05;9.49;77.33
70830;SHT30;58451;51.550;7.208;2023-04-24T09:25:49;9.50;77.90
70830;SHT30;58451;51.550;7.208;2023-04-24T09:27:28;9.52;77.88
70830;SHT30;58451;51.550;7.208;2023-04-24T09:29:00;9.55;78.37
70830;SHT30;58451;51.550;7.208;2023-04-24T09:30:32;9.61;78.27
70830;SHT30;58451;51.550;7.208;2023-04-24T09:32:20;9.66;78.82
70830;SHT30;58451;51.550;7.208;2023-04-24T09:33:57;9.78;78.27
70830;SHT30;58451;51.550;7.208;2023-04-24T09:35:42;9.89;77.97
70830;SHT30;58451;51.550;7.208;2023-04-24T09:37:28;9.98;77.77
70830;SHT30;58451;51.550;7.208;2023-04-24T09:39:01;10.07;77.62
70830;SHT30;58451;51.550;7.208;2023-04-24T09:40:35;10.14;77.70
70830;SHT30;58451;51.550;7.208;2023-04-24T09:44:19;10.20;77.52
70830;SHT30;58451;51.550;7.208;2023-04-24T09:45:57;10.19;77.80
70830;SHT30;58451;51.550;7.208;2023-04-24T09:47:35;10.18;77.85
70830;SHT30;58451;51.550;7.208;2023-04-24T09:49:15;10.14;77.93
70830;SHT30;58451;51.550;7.208;2023-04-24T09:50:51;10.12;77.77
70830;SHT30;58451;51.550;7.208;2023-04-24T09:52:23;10.06;77.82
70830;SHT30;58451;51.550;7.208;2023-04-24T09:53:56;10.02;77.70
70830;SHT30;58451;51.550;7.208;2023-04-24T09:55:28;9.95;77.83
70830;SHT30;58451;51.550;7.208;2023-04-24T09:57:00;9.89;78.13